sensor_id;sensor_type;location;lat;lon;timestamp;pressure;altitude;pressure_sealevel;temperature;humidity
2268;BME280;11052;43.338;25.502;2024-02-04T00:01:00;101031.28;;;3.03;100.00
2268;BME280;11052;43.338;25.502;2024-02-04T00:03:28;101032.91;;;2.94;100.00
2268;BME280;11052;43.338;25.502;2024-02-04T00:05:56;101038.69;;;2.80;100.00
2268;BME280;11052;43.338;25.502;2024-02-04T00:08:25;101036.75;;;2.63;100.00
2268;BME280;11052;43.338;25.502;2024-02-04T00:10:54;101038.38;;;2.57;100.00
2268;BME280;11052;43.338;25.502;2024-02-04T00:13:21;101028.88;;;2.48;100.00
2268;BME280;11052;43.338;25.502;2024-02-04T00:15:49;101032.34;;;2.52;100.00
2268;BME280;11052;43.338;25.502;2024-02-04T00:18:20;101036.63;;;2.53;100.00
2268;BME280;11052;43.338;25.502;2024-02-04T00:20:48;101033.13;;;2.46;100.00
2268;BME280;11052;43.338;25.502;2024-02-04T00:23:15;101030.56;;;2.46;100.00
2268;BME280;11052;43.338;25.502;2024-02-04T00:25:45;101029.78;;;2.52;100.00
2268;BME280;11052;43.338;25.502;2024-02-04T00:28:13;101031.38;;;2.44;100.00
2268;BME280;11052;43.338;25.502;2024-02-04T00:30:41;101018.53;;;2.41;100.00
2268;BME280;11052;43.338;25.502;2024-02-04T00:33:08;101025.41;;;2.43;100.00
2268;BME280;11052;43.338;25.502;2024-02-04T00:35:36;101025.34;;;2.40;100.00
2268;BME280;11052;43.338;25.502;2024-02-04T00:38:04;101021.03;;;2.38;100.00
2268;BME280;11052;43.338;25.502;2024-02-04T00:40:32;101010.03;;;2.42;100.00
2268;BME280;11052;43.338;25.502;2024-02-04T00:43:01;101009.28;;;2.50;100.00
2268;BME280;11052;43.338;25.502;2024-02-04T00:45:29;101010.28;;;2.60;100.00
2268;BME280;11052;43.338;25.502;2024-02-04T00:47:57;101011.13;;;2.62;100.00
2268;BME280;11052;43.338;25.502;2024-02-04T00:50:25;101009.56;;;2.73;100.00
2268;BME280;11052;43.338;25.502;2024-02-04T00:52:53;101014.75;;;2.76;100.00
2268;BME280;11052;43.338;25.502;2024-02-04T00:55:21;101008.94;;;2.89;100.00
2268;BME280;11052;43.338;25.502;2024-02-04T00:57:48;100999.84;;;3.14;100.00
2268;BME280;11052;43.338;25.502;2024-02-04T01:00:18;100985.63;;;3.42;100.00
2268;BME280;11052;43.338;25.502;2024-02-04T01:02:46;100993.41;;;3.54;100.00
2268;BME280;11052;43.338;25.502;2024-02-04T01:05:14;100994.31;;;3.59;100.00
2268;BME280;11052;43.338;25.502;2024-02-04T01:07:42;100990.91;;;3.60;100.00
2268;BME280;11052;43.338;25.502;2024-02-04T01:10:10;100978.06;;;3.57;100.00
2268;BME280;11052;43.338;25.502;2024-02-04T01:12:38;100966.16;;;3.64;100.00
2268;BME280;11052;43.338;25.502;2024-02-04T01:15:07;100956.00;;;3.75;100.00
2268;BME280;11052;43.338;25.502;2024-02-04T01:17:36;100962.97;;;3.92;100.00
2268;BME280;11052;43.338;25.502;2024-02-04T01:20:04;100966.56;;;4.16;100.00
2268;BME280;11052;43.338;25.502;2024-02-04T01:22:33;100954.66;;;4.24;100.00
2268;BME280;11052;43.338;25.502;2024-02-04T01:25:00;100959.81;;;4.30;100.00
2268;BME280;11052;43.338;25.502;2024-02-04T01:27:28;100960.78;;;4.52;100.00
2268;BME280;11052;43.338;25.502;2024-02-04T01:29:56;100959.97;;;4.62;100.00
2268;BME280;11052;43.338;25.502;2024-02-04T01:32:24;100955.78;;;4.81;100.00
2268;BME280;11052;43.338;25.502;2024-02-04T01:34:53;100955.84;;;4.98;100.00
2268;BME280;11052;43.338;25.502;2024-02-04T01:37:21;100951.59;;;5.24;100.00
2268;BME280;11052;43.338;25.502;2024-02-04T01:39:49;100945.63;;;5.33;100.00
2268;BME280;11052;43.338;25.502;2024-02-04T01:42:17;100946.50;;;5.48;100.00
2268;BME280;11052;43.338;25.502;2024-02-04T01:44:44;100944.81;;;5.61;100.00
2268;BME280;11052;43.338;25.502;2024-02-04T01:47:13;100926.81;;;5.69;100.00
2268;BME280;11052;43.338;25.502;2024-02-04T01:49:41;100928.53;;;5.77;100.00
2268;BME280;11052;43.338;25.502;2024-02-04T01:52:11;100925.09;;;5.95;100.00
2268;BME280;11052;43.338;25.502;2024-02-04T01:54:40;100924.25;;;5.99;100.00
2268;BME280;11052;43.338;25.502;2024-02-04T01:57:10;100920.78;;;6.08;100.00
2268;BME280;11052;43.338;25.502;2024-02-04T01:59:39;100914.78;;;6.07;100.00
2268;BME280;11052;43.338;25.502;2024-02-04T02:02:07;100905.31;;;6.14;100.00
2268;BME280;11052;43.338;25.502;2024-02-04T02:04:35;100901.03;;;6.14;100.00
2268;BME280;11052;43.338;25.502;2024-02-04T02:07:03;100902.75;;;6.15;100.00
2268;BME280;11052;43.338;25.502;2024-02-04T02:09:35;100898.44;;;6.25;100.00
2268;BME280;11052;43.338;25.502;2024-02-04T02:12:08;100888.97;;;6.32;100.00
2268;BME280;11052;43.338;25.502;2024-02-04T02:14:41;100895.81;;;6.34;100.00
2268;BME280;11052;43.338;25.502;2024-02-04T02:17:14;100888.91;;;6.47;100.00
2268;BME280;11052;43.338;25.502;2024-02-04T02:19:52;100893.19;;;6.54;100.00
2268;BME280;11052;43.338;25.502;2024-02-04T02:22:28;100888.03;;;6.51;100.00
2268;BME280;11052;43.338;25.502;2024-02-04T02:24:59;100888.06;;;6.45;100.00
2268;BME280;11052;43.338;25.502;2024-02-04T02:27:28;100887.19;;;6.46;100.00
2268;BME280;11052;43.338;25.502;2024-02-04T02:29:56;100889.78;;;6.41;100.00
2268;BME280;11052;43.338;25.502;2024-02-04T02:32:24;100886.41;;;6.29;100.00
2268;BME280;11052;43.338;25.502;2024-02-04T02:34:52;100894.13;;;6.29;100.00
2268;BME280;11052;43.338;25.502;2024-02-04T02:37:26;100895.00;;;6.28;100.00
2268;BME280;11052;43.338;25.502;2024-02-04T02:40:00;100886.28;;;6.62;100.00
2268;BME280;11052;43.338;25.502;2024-02-04T02:42:29;100873.28;;;6.88;100.00
2268;BME280;11052;43.338;25.502;2024-02-04T02:44:59;100878.28;;;7.05;100.00
2268;BME280;11052;43.338;25.502;2024-02-04T02:47:29;100873.00;;;7.26;100.00
2268;BME280;11052;43.338;25.502;2024-02-04T02:49:57;100866.84;;;7.42;100.00
2268;BME280;11052;43.338;25.502;2024-02-04T02:52:25;100868.50;;;7.52;100.00
2268;BME280;11052;43.338;25.502;2024-02-04T02:54:53;100870.88;;;7.74;100.00
2268;BME280;11052;43.338;25.502;2024-02-04T02:57:23;100870.94;;;7.69;100.00
2268;BME280;11052;43.338;25.502;2024-02-04T02:59:50;100872.47;;;7.85;100.00
2268;BME280;11052;43.338;25.502;2024-02-04T03:02:18;100877.59;;;7.90;100.00
2268;BME280;11052;43.338;25.502;2024-02-04T03:04:46;100879.25;;;7.96;100.00
2268;BME280;11052;43.338;25.502;2024-02-04T03:07:14;100874.09;;;7.94;100.00
2268;BME280;11052;43.338;25.502;2024-02-04T03:09:42;100880.06;;;7.99;100.00
2268;BME280;11052;43.338;25.502;2024-02-04T03:12:09;100868.88;;;8.00;100.00
2268;BME280;11052;43.338;25.502;2024-02-04T03:14:39;100875.78;;;7.97;100.00
2268;BME280;11052;43.338;25.502;2024-02-04T03:17:07;100873.25;;;7.94;100.00
2268;BME280;11052;43.338;25.502;2024-02-04T03:19:34;100872.59;;;7.75;100.00
2268;BME280;11052;43.338;25.502;2024-02-04T03:22:02;100868.41;;;7.63;100.00
2268;BME280;11052;43.338;25.502;2024-02-04T03:24:30;100859.78;;;7.66;100.00
2268;BME280;11052;43.338;25.502;2024-02-04T03:26:57;100859.81;;;7.63;100.00
2268;BME280;11052;43.338;25.502;2024-02-04T03:29:26;100858.91;;;7.67;100.00
2268;BME280;11052;43.338;25.502;2024-02-04T03:31:56;100858.03;;;7.68;100.00
2268;BME280;11052;43.338;25.502;2024-02-04T03:34:24;100853.69;;;7.71;100.00
2268;BME280;11052;43.338;25.502;2024-02-04T03:36:51;100850.19;;;7.80;100.00
2268;BME280;11052;43.338;25.502;2024-02-04T03:39:19;100848.34;;;7.88;100.00
2268;BME280;11052;43.338;25.502;2024-02-04T03:41:47;100847.53;;;7.84;100.00
2268;BME280;11052;43.338;25.502;2024-02-04T03:44:14;100836.38;;;7.81;100.00
2268;BME280;11052;43.338;25.502;2024-02-04T03:46:42;100850.13;;;7.83;100.00
2268;BME280;11052;43.338;25.502;2024-02-04T03:49:12;100842.38;;;7.84;100.00
2268;BME280;11052;43.338;25.502;2024-02-04T03:51:39;100847.53;;;7.83;100.00
2268;BME280;11052;43.338;25.502;2024-02-04T03:54:07;100853.56;;;7.82;100.00
2268;BME280;11052;43.338;25.502;2024-02-04T03:56:35;100848.34;;;7.88;100.00
2268;BME280;11052;43.338;25.502;2024-02-04T03:59:03;100862.13;;;7.87;100.00
2268;BME280;11052;43.338;25.502;2024-02-04T04:01:32;100854.50;;;7.76;100.00
2268;BME280;11052;43.338;25.502;2024-02-04T04:04:01;100872.66;;;7.69;100.00
2268;BME280;11052;43.338;25.502;2024-02-04T04:06:30;100867.53;;;7.66;100.00
2268;BME280;11052;43.338;25.502;2024-02-04T04:08:58;100870.06;;;7.69;100.00
2268;BME280;11052;43.338;25.502;2024-02-04T04:11:26;100873.53;;;7.65;100.00
2268;BME280;11052;43.338;25.502;2024-02-04T04:13:54;100877.84;;;7.66;100.00
2268;BME280;11052;43.338;25.502;2024-02-04T04:16:22;100876.06;;;7.71;100.00
2268;BME280;11052;43.338;25.502;2024-02-04T04:18:50;100879.50;;;7.73;100.00
2268;BME280;11052;43.338;25.502;2024-02-04T04:21:18;100878.66;;;7.69;100.00
2268;BME280;11052;43.338;25.502;2024-02-04T04:23:47;100878.53;;;7.81;100.00
2268;BME280;11052;43.338;25.502;2024-02-04T04:26:15;100881.16;;;7.80;100.00
2268;BME280;11052;43.338;25.502;2024-02-04T04:28:43;100877.75;;;7.75;100.00
2268;BME280;11052;43.338;25.502;2024-02-04T04:31:11;100882.03;;;7.77;100.00
2268;BME280;11052;43.338;25.502;2024-02-04T04:33:38;100881.94;;;7.83;100.00
2268;BME280;11052;43.338;25.502;2024-02-04T04:36:06;100879.34;;;7.85;100.00
2268;BME280;11052;43.338;25.502;2024-02-04T04:38:34;100879.44;;;7.79;100.00
2268;BME280;11052;43.338;25.502;2024-02-04T04:41:04;100878.63;;;7.75;100.00
2268;BME280;11052;43.338;25.502;2024-02-04T04:43:31;100876.09;;;7.69;100.00
2268;BME280;11052;43.338;25.502;2024-02-04T04:46:01;100888.06;;;7.75;100.00
2268;BME280;11052;43.338;25.502;2024-02-04T04:48:29;100888.03;;;7.79;100.00
2268;BME280;11052;43.338;25.502;2024-02-04T04:50:57;100895.09;;;7.59;100.00
2268;BME280;11052;43.338;25.502;2024-02-04T04:53:25;100897.66;;;7.62;100.00
2268;BME280;11052;43.338;25.502;2024-02-04T04:55:53;100888.16;;;7.64;100.00
2268;BME280;11052;43.338;25.502;2024-02-04T04:58:22;100893.97;;;7.84;100.00
2268;BME280;11052;43.338;25.502;2024-02-04T05:00:50;100890.50;;;7.87;100.00
2268;BME280;11052;43.338;25.502;2024-02-04T05:03:18;100891.38;;;7.87;100.00
2268;BME280;11052;43.338;25.502;2024-02-04T05:05:45;100902.50;;;7.93;100.00
2268;BME280;11052;43.338;25.502;2024-02-04T05:08:14;100899.97;;;7.86;100.00
2268;BME280;11052;43.338;25.502;2024-02-04T05:10:42;100900.81;;;7.88;100.00
2268;BME280;11052;43.338;25.502;2024-02-04T05:13:10;100894.00;;;7.81;100.00
2268;BME280;11052;43.338;25.502;2024-02-04T05:15:39;100899.22;;;7.80;100.00
2268;BME280;11052;43.338;25.502;2024-02-04T05:18:07;100898.38;;;7.78;100.00
2268;BME280;11052;43.338;25.502;2024-02-04T05:20:35;100896.69;;;7.74;100.00
2268;BME280;11052;43.338;25.502;2024-02-04T05:23:03;100904.31;;;7.81;100.00
2268;BME280;11052;43.338;25.502;2024-02-04T05:25:31;100899.13;;;7.84;100.00
2268;BME280;11052;43.338;25.502;2024-02-04T05:27:58;100897.50;;;7.79;100.00
2268;BME280;11052;43.338;25.502;2024-02-04T05:30:26;100894.88;;;7.82;100.00
2268;BME280;11052;43.338;25.502;2024-02-04T05:32:56;100889.75;;;7.79;100.00
2268;BME280;11052;43.338;25.502;2024-02-04T05:35:24;100892.34;;;7.79;100.00
2268;BME280;11052;43.338;25.502;2024-02-04T05:37:51;100894.94;;;7.77;100.00
2268;BME280;11052;43.338;25.502;2024-02-04T05:40:19;100898.44;;;7.72;100.00
2268;BME280;11052;43.338;25.502;2024-02-04T05:42:47;100907.88;;;7.74;100.00
2268;BME280;11052;43.338;25.502;2024-02-04T05:45:15;100905.31;;;7.70;100.00
2268;BME280;11052;43.338;25.502;2024-02-04T05:47:42;100907.06;;;7.69;100.00
2268;BME280;11052;43.338;25.502;2024-02-04T05:50:11;100915.72;;;7.61;100.00
2268;BME280;11052;43.338;25.502;2024-02-04T05:52:39;100923.41;;;7.68;100.00
2268;BME280;11052;43.338;25.502;2024-02-04T05:55:09;100923.41;;;7.68;100.00
2268;BME280;11052;43.338;25.502;2024-02-04T05:57:37;100916.56;;;7.61;100.00
2268;BME280;11052;43.338;25.502;2024-02-04T06:00:06;100920.06;;;7.55;100.00
2268;BME280;11052;43.338;25.502;2024-02-04T06:02:34;100918.34;;;7.53;100.00
2268;BME280;11052;43.338;25.502;2024-02-04T06:05:02;100926.97;;;7.52;100.00
2268;BME280;11052;43.338;25.502;2024-02-04T06:07:31;100921.03;;;7.41;100.00
2268;BME280;11052;43.338;25.502;2024-02-04T06:09:58;100919.31;;;7.38;100.00
2268;BME280;11052;43.338;25.502;2024-02-04T06:12:29;100926.25;;;7.32;100.00
2268;BME280;11052;43.338;25.502;2024-02-04T06:14:56;100920.25;;;7.27;100.00
2268;BME280;11052;43.338;25.502;2024-02-04T06:17:24;100913.47;;;7.12;100.00
2268;BME280;11052;43.338;25.502;2024-02-04T06:19:51;100919.50;;;7.08;100.00
2268;BME280;11052;43.338;25.502;2024-02-04T06:22:19;100922.94;;;7.13;100.00
2268;BME280;11052;43.338;25.502;2024-02-04T06:24:49;100918.56;;;7.21;100.00
2268;BME280;11052;43.338;25.502;2024-02-04T06:27:16;100925.44;;;7.25;100.00
2268;BME280;11052;43.338;25.502;2024-02-04T06:29:44;100919.41;;;7.24;100.00
2268;BME280;11052;43.338;25.502;2024-02-04T06:32:12;100915.97;;;7.27;100.00
2268;BME280;11052;43.338;25.502;2024-02-04T06:34:40;100914.16;;;7.41;100.00
2268;BME280;11052;43.338;25.502;2024-02-04T06:37:07;100911.59;;;7.37;100.00
2268;BME280;11052;43.338;25.502;2024-02-04T06:39:35;100921.88;;;7.41;100.00
2268;BME280;11052;43.338;25.502;2024-02-04T06:42:04;100914.22;;;7.32;100.00
2268;BME280;11052;43.338;25.502;2024-02-04T06:44:32;100914.16;;;7.38;100.00
2268;BME280;11052;43.338;25.502;2024-02-04T06:46:59;100918.41;;;7.45;100.00
2268;BME280;11052;43.338;25.502;2024-02-04T06:49:27;100926.97;;;7.50;100.00
2268;BME280;11052;43.338;25.502;2024-02-04T06:51:54;100926.06;;;7.57;100.00
2268;BME280;11052;43.338;25.502;2024-02-04T06:54:23;100932.84;;;7.71;100.00
2268;BME280;11052;43.338;25.502;2024-02-04T06:56:51;100935.38;;;7.75;100.00
2268;BME280;11052;43.338;25.502;2024-02-04T06:59:20;100936.97;;;7.87;100.00
2268;BME280;11052;43.338;25.502;2024-02-04T07:01:48;100933.44;;;7.99;100.00
2268;BME280;11052;43.338;25.502;2024-02-04T07:04:15;100938.50;;;8.08;100.00
2268;BME280;11052;43.338;25.502;2024-02-04T07:06:43;100934.09;;;8.19;100.00
2268;BME280;11052;43.338;25.502;2024-02-04T07:09:11;100943.50;;;8.25;100.00
2268;BME280;11052;43.338;25.502;2024-02-04T07:11:38;100937.50;;;8.22;100.00
2268;BME280;11052;43.338;25.502;2024-02-04T07:14:06;100939.13;;;8.34;100.00
2268;BME280;11052;43.338;25.502;2024-02-04T07:16:35;100945.13;;;8.39;100.00
2268;BME280;11052;43.338;25.502;2024-02-04T07:19:03;100939.91;;;8.44;100.00
2268;BME280;11052;43.338;25.502;2024-02-04T07:21:31;100948.53;;;8.41;100.00
2268;BME280;11052;43.338;25.502;2024-02-04T07:23:58;100944.25;;;8.39;100.00
2268;BME280;11052;43.338;25.502;2024-02-04T07:26:26;100941.56;;;8.48;100.00
2268;BME280;11052;43.338;25.502;2024-02-04T07:28:54;100950.06;;;8.58;100.00
2268;BME280;11052;43.338;25.502;2024-02-04T07:31:22;100938.78;;;8.66;100.00
2268;BME280;11052;43.338;25.502;2024-02-04T07:33:51;100949.75;;;8.82;100.00
2268;BME280;11052;43.338;25.502;2024-02-04T07:36:19;100936.84;;;8.82;100.00
2268;BME280;11052;43.338;25.502;2024-02-04T07:38:47;100938.50;;;8.86;100.00
2268;BME280;11052;43.338;25.502;2024-02-04T07:41:14;100934.06;;;8.96;100.00
2268;BME280;11052;43.338;25.502;2024-02-04T07:43:42;100938.31;;;9.01;100.00
2268;BME280;11052;43.338;25.502;2024-02-04T07:46:10;100941.72;;;9.05;100.00
2268;BME280;11052;43.338;25.502;2024-02-04T07:48:38;100938.03;;;9.21;100.00
2268;BME280;11052;43.338;25.502;2024-02-04T07:51:08;100940.50;;;9.29;100.00
2268;BME280;11052;43.338;25.502;2024-02-04T07:53:35;100934.34;;;9.37;100.00
2268;BME280;11052;43.338;25.502;2024-02-04T07:56:04;100936.84;;;9.43;100.00
2268;BME280;11052;43.338;25.502;2024-02-04T07:58:32;100927.16;;;9.54;100.00
2268;BME280;11052;43.338;25.502;2024-02-04T08:01:00;100924.50;;;9.59;100.00
2268;BME280;11052;43.338;25.502;2024-02-04T08:03:28;100925.94;;;9.77;100.00
2268;BME280;11052;43.338;25.502;2024-02-04T08:05:55;100925.75;;;9.88;100.00
2268;BME280;11052;43.338;25.502;2024-02-04T08:08:24;100929.75;;;10.05;100.00
2268;BME280;11052;43.338;25.502;2024-02-04T08:10:52;100921.75;;;10.19;100.00
2268;BME280;11052;43.338;25.502;2024-02-04T08:13:19;100930.19;;;10.30;100.00
2268;BME280;11052;43.338;25.502;2024-02-04T08:15:47;100925.59;;;10.44;100.00
2268;BME280;11052;43.338;25.502;2024-02-04T08:18:15;100926.00;;;10.66;100.00
2268;BME280;11052;43.338;25.502;2024-02-04T08:20:42;100933.25;;;10.92;100.00
2268;BME280;11052;43.338;25.502;2024-02-04T08:23:10;100938.72;;;11.19;100.00
2268;BME280;11052;43.338;25.502;2024-02-04T08:25:40;100929.00;;;11.27;100.00
2268;BME280;11052;43.338;25.502;2024-02-04T08:28:08;100928.84;;;11.34;100.00
2268;BME280;11052;43.338;25.502;2024-02-04T08:30:35;100919.63;;;11.58;100.00
2268;BME280;11052;43.338;25.502;2024-02-04T08:33:04;100928.69;;;11.77;100.00
2268;BME280;11052;43.338;25.502;2024-02-04T08:35:31;100924.81;;;11.94;100.00
2268;BME280;11052;43.338;25.502;2024-02-04T08:37:59;100931.06;;;12.19;100.00
2268;BME280;11052;43.338;25.502;2024-02-04T08:40:27;100935.16;;;12.28;100.00
2268;BME280;11052;43.338;25.502;2024-02-04T08:42:56;100945.25;;;12.07;100.00
2268;BME280;11052;43.338;25.502;2024-02-04T08:45:24;100936.50;;;11.76;100.00
2268;BME280;11052;43.338;25.502;2024-02-04T08:47:51;100949.09;;;11.56;100.00
2268;BME280;11052;43.338;25.502;2024-02-04T08:50:19;100945.84;;;11.47;100.00
2268;BME280;11052;43.338;25.502;2024-02-04T08:52:47;100937.88;;;11.55;100.00
2268;BME280;11052;43.338;25.502;2024-02-04T08:55:14;100930.72;;;11.65;100.00
2268;BME280;11052;43.338;25.502;2024-02-04T08:57:42;100939.00;;;11.80;100.00
2268;BME280;11052;43.338;25.502;2024-02-04T09:00:13;100929.38;;;11.86;100.00
2268;BME280;11052;43.338;25.502;2024-02-04T09:02:41;100927.78;;;11.80;100.00
2268;BME280;11052;43.338;25.502;2024-02-04T09:05:09;100927.84;;;11.77;100.00
2268;BME280;11052;43.338;25.502;2024-02-04T09:07:36;100930.28;;;11.83;100.00
2268;BME280;11052;43.338;25.502;2024-02-04T09:10:05;100924.66;;;12.00;100.00
2268;BME280;11052;43.338;25.502;2024-02-04T09:12:33;100939.25;;;12.05;100.00
2268;BME280;11052;43.338;25.502;2024-02-04T09:15:01;100943.63;;;12.03;100.00
2268;BME280;11052;43.338;25.502;2024-02-04T09:17:32;100942.91;;;11.98;100.00
2268;BME280;11052;43.338;25.502;2024-02-04T09:20:00;100933.81;;;11.80;100.00
2268;BME280;11052;43.338;25.502;2024-02-04T09:22:28;100938.38;;;11.69;100.00
2268;BME280;11052;43.338;25.502;2024-02-04T09:24:56;100940.91;;;11.72;100.00
2268;BME280;11052;43.338;25.502;2024-02-04T09:27:23;100941.56;;;11.82;100.00
2268;BME280;11052;43.338;25.502;2024-02-04T09:29:51;100946.75;;;11.82;100.00
2268;BME280;11052;43.338;25.502;2024-02-04T09:32:20;100940.03;;;11.73;100.00
2268;BME280;11052;43.338;25.502;2024-02-04T09:34:50;100939.25;;;11.70;100.00
2268;BME280;11052;43.338;25.502;2024-02-04T09:37:17;100941.03;;;11.68;100.00
2268;BME280;11052;43.338;25.502;2024-02-04T09:39:45;100940.28;;;11.63;100.00
2268;BME280;11052;43.338;25.502;2024-02-04T09:42:18;100942.66;;;11.72;100.00
2268;BME280;11052;43.338;25.502;2024-02-04T09:44:47;100944.31;;;11.74;100.00
2268;BME280;11052;43.338;25.502;2024-02-04T09:47:15;100940.69;;;11.83;100.00
2268;BME280;11052;43.338;25.502;2024-02-04T09:49:44;100937.94;;;11.89;100.00
2268;BME280;11052;43.338;25.502;2024-02-04T09:52:18;100934.09;;;12.04;100.00
2268;BME280;11052;43.338;25.502;2024-02-04T09:54:50;100933.13;;;12.08;100.00
2268;BME280;11052;43.338;25.502;2024-02-04T09:57:18;100931.06;;;12.19;100.00
2268;BME280;11052;43.338;25.502;2024-02-04T09:59:45;100936.09;;;12.25;100.00
2268;BME280;11052;43.338;25.502;2024-02-04T10:02:14;100934.19;;;12.32;100.00
2268;BME280;11052;43.338;25.502;2024-02-04T10:04:42;100929.00;;;12.32;100.00
2268;BME280;11052;43.338;25.502;2024-02-04T10:07:10;100935.03;;;12.32;100.00
2268;BME280;11052;43.338;25.502;2024-02-04T10:09:41;100928.91;;;12.35;100.00
2268;BME280;11052;43.338;25.502;2024-02-04T10:12:09;100929.75;;;12.35;100.00
2268;BME280;11052;43.338;25.502;2024-02-04T10:14:37;100934.06;;;12.36;100.00
2268;BME280;11052;43.338;25.502;2024-02-04T10:17:05;100923.84;;;12.30;100.00
2268;BME280;11052;43.338;25.502;2024-02-04T10:19:32;100916.75;;;12.04;100.00
2268;BME280;11052;43.338;25.502;2024-02-04T10:22:00;100917.50;;;12.09;100.00
2268;BME280;11052;43.338;25.502;2024-02-04T10:24:29;100913.00;;;12.14;100.00
2268;BME280;11052;43.338;25.502;2024-02-04T10:26:58;100906.94;;;12.14;100.00
2268;BME280;11052;43.338;25.502;2024-02-04T10:29:26;100910.63;;;12.07;100.00
2268;BME280;11052;43.338;25.502;2024-02-04T10:31:54;100915.22;;;11.97;100.00
2268;BME280;11052;43.338;25.502;2024-02-04T10:34:22;100924.03;;;11.90;100.00
2268;BME280;11052;43.338;25.502;2024-02-04T10:36:50;100924.00;;;11.92;100.00
2268;BME280;11052;43.338;25.502;2024-02-04T10:39:17;100928.38;;;11.90;100.00
2268;BME280;11052;43.338;25.502;2024-02-04T10:41:49;100922.41;;;11.86;100.00
2268;BME280;11052;43.338;25.502;2024-02-04T10:44:21;100923.31;;;11.85;100.00
2268;BME280;11052;43.338;25.502;2024-02-04T10:46:50;100915.63;;;11.80;100.00
2268;BME280;11052;43.338;25.502;2024-02-04T10:49:19;100908.00;;;11.73;100.00
2268;BME280;11052;43.338;25.502;2024-02-04T10:51:47;100909.03;;;11.66;100.00
2268;BME280;11052;43.338;25.502;2024-02-04T10:54:16;100905.75;;;11.59;100.00
2268;BME280;11052;43.338;25.502;2024-02-04T10:56:45;100915.88;;;11.70;100.00
2268;BME280;11052;43.338;25.502;2024-02-04T10:59:15;100906.38;;;11.69;100.00
2268;BME280;11052;43.338;25.502;2024-02-04T11:01:47;100907.91;;;11.76;100.00
2268;BME280;11052;43.338;25.502;2024-02-04T11:04:17;100906.13;;;11.79;100.00
2268;BME280;11052;43.338;25.502;2024-02-04T11:06:44;100903.38;;;11.86;100.00
2268;BME280;11052;43.338;25.502;2024-02-04T11:09:13;100899.19;;;11.80;100.00
2268;BME280;11052;43.338;25.502;2024-02-04T11:11:42;100898.34;;;11.79;100.00
2268;BME280;11052;43.338;25.502;2024-02-04T11:14:12;100898.09;;;11.89;100.00
2268;BME280;11052;43.338;25.502;2024-02-04T11:17:03;100892.19;;;11.84;100.00
2268;BME280;11052;43.338;25.502;2024-02-04T11:19:44;100892.28;;;11.79;100.00
2268;BME280;11052;43.338;25.502;2024-02-04T11:22:28;100879.19;;;11.84;100.00
2268;BME280;11052;43.338;25.502;2024-02-04T11:25:26;100878.88;;;11.96;100.00
2268;BME280;11052;43.338;25.502;2024-02-04T11:27:59;100888.28;;;12.00;100.00
2268;BME280;11052;43.338;25.502;2024-02-04T11:30:31;100879.03;;;12.21;100.00
2268;BME280;11052;43.338;25.502;2024-02-04T11:33:02;100868.09;;;12.40;100.00
2268;BME280;11052;43.338;25.502;2024-02-04T11:35:30;100880.06;;;12.46;100.00
2268;BME280;11052;43.338;25.502;2024-02-04T11:37:58;100862.63;;;12.50;100.00
2268;BME280;11052;43.338;25.502;2024-02-04T11:40:30;100858.00;;;12.59;100.00
2268;BME280;11052;43.338;25.502;2024-02-04T11:43:06;100848.59;;;12.55;100.00
2268;BME280;11052;43.338;25.502;2024-02-04T11:45:37;100847.28;;;12.40;100.00
2268;BME280;11052;43.338;25.502;2024-02-04T11:48:09;100834.16;;;12.45;100.00
2268;BME280;11052;43.338;25.502;2024-02-04T11:50:37;100849.78;;;12.43;100.00
2268;BME280;11052;43.338;25.502;2024-02-04T11:53:06;100850.19;;;12.30;100.00
2268;BME280;11052;43.338;25.502;2024-02-04T11:55:33;100849.25;;;12.32;100.00
2268;BME280;11052;43.338;25.502;2024-02-04T11:58:01;100858.59;;;12.39;100.00
2268;BME280;11052;43.338;25.502;2024-02-04T12:00:29;100851.53;;;12.43;100.00
2268;BME280;11052;43.338;25.502;2024-02-04T12:03:02;100839.53;;;12.39;100.00
2268;BME280;11052;43.338;25.502;2024-02-04T12:05:33;100842.53;;;12.25;100.00
2268;BME280;11052;43.338;25.502;2024-02-04T12:08:02;100844.91;;;12.33;100.00
2268;BME280;11052;43.338;25.502;2024-02-04T12:10:30;100830.25;;;12.60;100.00
2268;BME280;11052;43.338;25.502;2024-02-04T12:12:59;100837.50;;;12.78;100.00
2268;BME280;11052;43.338;25.502;2024-02-04T12:15:28;100825.78;;;12.93;100.00
2268;BME280;11052;43.338;25.502;2024-02-04T12:18:04;100825.31;;;13.06;100.00
2268;BME280;11052;43.338;25.502;2024-02-04T12:20:34;100825.97;;;13.13;100.00
2268;BME280;11052;43.338;25.502;2024-02-04T12:23:03;100821.59;;;13.13;100.00
2268;BME280;11052;43.338;25.502;2024-02-04T12:25:31;100824.16;;;13.17;100.00
2268;BME280;11052;43.338;25.502;2024-02-04T12:28:00;100816.28;;;13.18;100.00
2268;BME280;11052;43.338;25.502;2024-02-04T12:30:30;100811.63;;;13.28;100.00
2268;BME280;11052;43.338;25.502;2024-02-04T12:32:58;100807.38;;;13.25;100.00
2268;BME280;11052;43.338;25.502;2024-02-04T12:35:25;100810.19;;;13.19;100.00
2268;BME280;11052;43.338;25.502;2024-02-04T12:37:56;100806.28;;;13.32;100.00
2268;BME280;11052;43.338;25.502;2024-02-04T12:40:26;100791.72;;;13.27;100.00
2268;BME280;11052;43.338;25.502;2024-02-04T12:42:55;100794.97;;;13.33;100.00
2268;BME280;11052;43.338;25.502;2024-02-04T12:45:23;100791.00;;;13.48;100.00
2268;BME280;11052;43.338;25.502;2024-02-04T12:47:51;100794.22;;;13.55;100.00
2268;BME280;11052;43.338;25.502;2024-02-04T12:50:20;100785.72;;;13.50;100.00
2268;BME280;11052;43.338;25.502;2024-02-04T12:52:49;100778.41;;;13.61;100.00